sensor_id;sensor_type;location;lat;lon;timestamp;P1;durP1;ratioP1;P2;durP2;ratioP2
74612;SDS011;63119;51.788;8.824;2024-03-07T00:00:45;21.95;;;12.63;;
74612;SDS011;63119;51.788;8.824;2024-03-07T00:03:10;22.53;;;11.97;;
74612;SDS011;63119;51.788;8.824;2024-03-07T00:05:36;25.97;;;12.50;;
74612;SDS011;63119;51.788;8.824;2024-03-07T00:08:01;25.03;;;13.20;;
74612;SDS011;63119;51.788;8.824;2024-03-07T00:10:27;27.83;;;12.88;;
74612;SDS011;63119;51.788;8.824;2024-03-07T00:12:52;22.10;;;12.57;;
74612;SDS011;63119;51.788;8.824;2024-03-07T00:15:17;23.03;;;11.37;;
74612;SDS011;63119;51.788;8.824;2024-03-07T00:17:42;23.30;;;11.87;;
74612;SDS011;63119;51.788;8.824;2024-03-07T00:20:08;28.40;;;14.13;;
74612;SDS011;63119;51.788;8.824;2024-03-07T00:22:37;26.60;;;13.35;;
74612;SDS011;63119;51.788;8.824;2024-03-07T00:25:03;21.50;;;12.88;;
74612;SDS011;63119;51.788;8.824;2024-03-07T00:27:32;25.90;;;12.85;;
74612;SDS011;63119;51.788;8.824;2024-03-07T00:29:58;27.95;;;14.02;;
74612;SDS011;63119;51.788;8.824;2024-03-07T00:32:24;24.35;;;11.98;;
74612;SDS011;63119;51.788;8.824;2024-03-07T00:34:49;21.63;;;11.93;;
74612;SDS011;63119;51.788;8.824;2024-03-07T00:37:18;22.08;;;13.02;;
74612;SDS011;63119;51.788;8.824;2024-03-07T00:42:09;23.40;;;11.05;;
74612;SDS011;63119;51.788;8.824;2024-03-07T00:44:34;23.23;;;11.27;;
74612;SDS011;63119;51.788;8.824;2024-03-07T00:47:00;25.42;;;12.82;;
74612;SDS011;63119;51.788;8.824;2024-03-07T00:49:26;21.42;;;12.02;;
74612;SDS011;63119;51.788;8.824;2024-03-07T00:51:53;21.48;;;12.30;;
74612;SDS011;63119;51.788;8.824;2024-03-07T00:54:19;22.70;;;10.88;;
74612;SDS011;63119;51.788;8.824;2024-03-07T00:56:44;22.15;;;12.10;;
74612;SDS011;63119;51.788;8.824;2024-03-07T00:59:09;22.13;;;11.10;;
74612;SDS011;63119;51.788;8.824;2024-03-07T01:01:34;24.77;;;11.80;;
74612;SDS011;63119;51.788;8.824;2024-03-07T01:04:01;21.85;;;10.95;;
74612;SDS011;63119;51.788;8.824;2024-03-07T01:06:27;23.08;;;12.95;;
74612;SDS011;63119;51.788;8.824;2024-03-07T01:08:52;22.53;;;12.30;;
74612;SDS011;63119;51.788;8.824;2024-03-07T01:11:17;21.03;;;10.80;;
74612;SDS011;63119;51.788;8.824;2024-03-07T01:13:43;22.30;;;12.75;;
74612;SDS011;63119;51.788;8.824;2024-03-07T01:16:08;22.87;;;12.27;;
74612;SDS011;63119;51.788;8.824;2024-03-07T01:18:34;23.42;;;13.05;;
74612;SDS011;63119;51.788;8.824;2024-03-07T01:21:02;22.80;;;12.30;;
74612;SDS011;63119;51.788;8.824;2024-03-07T01:23:29;22.00;;;11.98;;
74612;SDS011;63119;51.788;8.824;2024-03-07T01:25:56;25.10;;;12.57;;
74612;SDS011;63119;51.788;8.824;2024-03-07T01:28:28;28.80;;;14.02;;
74612;SDS011;63119;51.788;8.824;2024-03-07T01:30:56;25.90;;;13.98;;
74612;SDS011;63119;51.788;8.824;2024-03-07T01:33:23;25.52;;;13.13;;
74612;SDS011;63119;51.788;8.824;2024-03-07T01:35:48;21.58;;;11.93;;
74612;SDS011;63119;51.788;8.824;2024-03-07T01:38:14;26.88;;;13.45;;
74612;SDS011;63119;51.788;8.824;2024-03-07T01:40:40;31.17;;;16.27;;
74612;SDS011;63119;51.788;8.824;2024-03-07T01:43:06;30.05;;;15.50;;
74612;SDS011;63119;51.788;8.824;2024-03-07T01:45:32;23.73;;;12.45;;
74612;SDS011;63119;51.788;8.824;2024-03-07T01:47:57;27.38;;;14.82;;
74612;SDS011;63119;51.788;8.824;2024-03-07T01:50:23;31.13;;;15.18;;
74612;SDS011;63119;51.788;8.824;2024-03-07T01:52:49;26.50;;;15.30;;
74612;SDS011;63119;51.788;8.824;2024-03-07T01:55:16;25.92;;;14.30;;
74612;SDS011;63119;51.788;8.824;2024-03-07T01:57:42;26.77;;;13.23;;
74612;SDS011;63119;51.788;8.824;2024-03-07T02:00:08;28.38;;;13.98;;
74612;SDS011;63119;51.788;8.824;2024-03-07T02:02:34;24.10;;;14.07;;
74612;SDS011;63119;51.788;8.824;2024-03-07T02:05:00;29.15;;;14.55;;
74612;SDS011;63119;51.788;8.824;2024-03-07T02:07:25;30.35;;;15.57;;
74612;SDS011;63119;51.788;8.824;2024-03-07T02:09:58;29.05;;;14.90;;
74612;SDS011;63119;51.788;8.824;2024-03-07T02:12:24;26.65;;;14.48;;
74612;SDS011;63119;51.788;8.824;2024-03-07T02:14:49;25.63;;;13.43;;
74612;SDS011;63119;51.788;8.824;2024-03-07T02:17:15;24.30;;;12.63;;
74612;SDS011;63119;51.788;8.824;2024-03-07T02:19:41;28.17;;;14.48;;
74612;SDS011;63119;51.788;8.824;2024-03-07T02:22:06;22.60;;;12.50;;
74612;SDS011;63119;51.788;8.824;2024-03-07T02:24:32;24.27;;;12.87;;
74612;SDS011;63119;51.788;8.824;2024-03-07T02:26:57;29.93;;;14.00;;
74612;SDS011;63119;51.788;8.824;2024-03-07T02:29:24;27.85;;;13.18;;
74612;SDS011;63119;51.788;8.824;2024-03-07T02:31:49;24.17;;;13.47;;
74612;SDS011;63119;51.788;8.824;2024-03-07T02:34:16;27.23;;;14.50;;
74612;SDS011;63119;51.788;8.824;2024-03-07T02:36:42;23.80;;;12.18;;
74612;SDS011;63119;51.788;8.824;2024-03-07T02:39:07;27.73;;;14.10;;
74612;SDS011;63119;51.788;8.824;2024-03-07T02:41:32;30.77;;;15.60;;
74612;SDS011;63119;51.788;8.824;2024-03-07T02:43:59;27.35;;;14.13;;
74612;SDS011;63119;51.788;8.824;2024-03-07T02:46:26;23.70;;;12.80;;
74612;SDS011;63119;51.788;8.824;2024-03-07T02:48:51;27.30;;;14.30;;
74612;SDS011;63119;51.788;8.824;2024-03-07T02:51:16;27.43;;;13.73;;
74612;SDS011;63119;51.788;8.824;2024-03-07T02:53:42;26.43;;;13.93;;
74612;SDS011;63119;51.788;8.824;2024-03-07T02:56:07;28.38;;;14.70;;
74612;SDS011;63119;51.788;8.824;2024-03-07T02:58:32;26.47;;;14.80;;
74612;SDS011;63119;51.788;8.824;2024-03-07T03:00:58;27.48;;;14.85;;
74612;SDS011;63119;51.788;8.824;2024-03-07T03:03:25;26.17;;;12.05;;
74612;SDS011;63119;51.788;8.824;2024-03-07T03:05:51;25.92;;;14.27;;
74612;SDS011;63119;51.788;8.824;2024-03-07T03:08:16;25.03;;;13.73;;
74612;SDS011;63119;51.788;8.824;2024-03-07T03:10:42;25.73;;;14.40;;
74612;SDS011;63119;51.788;8.824;2024-03-07T03:13:09;26.90;;;13.55;;
74612;SDS011;63119;51.788;8.824;2024-03-07T03:15:34;28.08;;;13.70;;
74612;SDS011;63119;51.788;8.824;2024-03-07T03:18:00;26.63;;;12.98;;
74612;SDS011;63119;51.788;8.824;2024-03-07T03:20:25;26.30;;;12.82;;
74612;SDS011;63119;51.788;8.824;2024-03-07T03:22:51;26.77;;;14.23;;
74612;SDS011;63119;51.788;8.824;2024-03-07T03:25:18;24.15;;;13.15;;
74612;SDS011;63119;51.788;8.824;2024-03-07T03:27:44;28.05;;;14.13;;
74612;SDS011;63119;51.788;8.824;2024-03-07T03:30:09;27.53;;;13.37;;
74612;SDS011;63119;51.788;8.824;2024-03-07T03:32:38;25.88;;;13.32;;
74612;SDS011;63119;51.788;8.824;2024-03-07T03:35:04;23.88;;;13.60;;
74612;SDS011;63119;51.788;8.824;2024-03-07T03:37:30;26.33;;;13.65;;
74612;SDS011;63119;51.788;8.824;2024-03-07T03:39:55;26.63;;;13.17;;
74612;SDS011;63119;51.788;8.824;2024-03-07T03:42:20;24.10;;;13.50;;
74612;SDS011;63119;51.788;8.824;2024-03-07T03:44:46;21.60;;;12.27;;
74612;SDS011;63119;51.788;8.824;2024-03-07T03:47:11;24.13;;;13.23;;
74612;SDS011;63119;51.788;8.824;2024-03-07T03:49:37;29.97;;;15.03;;
74612;SDS011;63119;51.788;8.824;2024-03-07T03:52:02;25.07;;;13.53;;
74612;SDS011;63119;51.788;8.824;2024-03-07T03:54:27;23.17;;;13.23;;
74612;SDS011;63119;51.788;8.824;2024-03-07T03:56:53;28.05;;;13.45;;
74612;SDS011;63119;51.788;8.824;2024-03-07T03:59:18;28.07;;;13.50;;
74612;SDS011;63119;51.788;8.824;2024-03-07T04:01:43;27.17;;;13.90;;
74612;SDS011;63119;51.788;8.824;2024-03-07T04:04:10;22.95;;;12.48;;
74612;SDS011;63119;51.788;8.824;2024-03-07T04:06:35;25.97;;;13.10;;
74612;SDS011;63119;51.788;8.824;2024-03-07T04:09:00;26.27;;;13.97;;
74612;SDS011;63119;51.788;8.824;2024-03-07T04:11:26;25.27;;;13.53;;
74612;SDS011;63119;51.788;8.824;2024-03-07T04:13:51;26.65;;;13.75;;
74612;SDS011;63119;51.788;8.824;2024-03-07T04:16:17;22.63;;;13.17;;
74612;SDS011;63119;51.788;8.824;2024-03-07T04:18:42;22.90;;;12.97;;
74612;SDS011;63119;51.788;8.824;2024-03-07T04:21:07;24.77;;;12.83;;
74612;SDS011;63119;51.788;8.824;2024-03-07T04:23:34;25.88;;;13.98;;
74612;SDS011;63119;51.788;8.824;2024-03-07T04:25:59;28.37;;;15.17;;
74612;SDS011;63119;51.788;8.824;2024-03-07T04:28:25;22.87;;;13.20;;
74612;SDS011;63119;51.788;8.824;2024-03-07T04:30:50;31.20;;;14.53;;
74612;SDS011;63119;51.788;8.824;2024-03-07T04:33:18;24.83;;;12.98;;
74612;SDS011;63119;51.788;8.824;2024-03-07T04:35:44;27.33;;;14.20;;
74612;SDS011;63119;51.788;8.824;2024-03-07T04:38:09;26.73;;;14.87;;
74612;SDS011;63119;51.788;8.824;2024-03-07T04:40:39;25.65;;;14.23;;
74612;SDS011;63119;51.788;8.824;2024-03-07T04:43:05;29.00;;;15.43;;
74612;SDS011;63119;51.788;8.824;2024-03-07T04:45:30;26.93;;;15.10;;
74612;SDS011;63119;51.788;8.824;2024-03-07T04:47:56;27.65;;;14.32;;
74612;SDS011;63119;51.788;8.824;2024-03-07T04:50:21;31.17;;;15.73;;
74612;SDS011;63119;51.788;8.824;2024-03-07T04:52:46;27.47;;;15.20;;
74612;SDS011;63119;51.788;8.824;2024-03-07T04:55:12;24.95;;;13.95;;
74612;SDS011;63119;51.788;8.824;2024-03-07T04:57:38;25.63;;;13.85;;
74612;SDS011;63119;51.788;8.824;2024-03-07T05:00:06;24.27;;;14.30;;
74612;SDS011;63119;51.788;8.824;2024-03-07T05:02:32;28.27;;;15.18;;
74612;SDS011;63119;51.788;8.824;2024-03-07T05:04:57;30.60;;;14.50;;
74612;SDS011;63119;51.788;8.824;2024-03-07T05:07:23;31.93;;;15.87;;
74612;SDS011;63119;51.788;8.824;2024-03-07T05:09:48;29.80;;;14.45;;
74612;SDS011;63119;51.788;8.824;2024-03-07T05:12:13;28.67;;;15.20;;
74612;SDS011;63119;51.788;8.824;2024-03-07T05:14:39;29.53;;;15.90;;
74612;SDS011;63119;51.788;8.824;2024-03-07T05:17:04;26.00;;;14.33;;
74612;SDS011;63119;51.788;8.824;2024-03-07T05:19:33;27.90;;;14.27;;
74612;SDS011;63119;51.788;8.824;2024-03-07T05:21:59;25.77;;;14.88;;
74612;SDS011;63119;51.788;8.824;2024-03-07T05:24:24;26.35;;;14.38;;
74612;SDS011;63119;51.788;8.824;2024-03-07T05:26:50;29.08;;;15.15;;
74612;SDS011;63119;51.788;8.824;2024-03-07T05:29:17;26.20;;;13.27;;
74612;SDS011;63119;51.788;8.824;2024-03-07T05:31:43;29.35;;;14.32;;
74612;SDS011;63119;51.788;8.824;2024-03-07T05:34:17;26.30;;;13.65;;
74612;SDS011;63119;51.788;8.824;2024-03-07T05:36:48;27.10;;;13.85;;
74612;SDS011;63119;51.788;8.824;2024-03-07T05:39:14;28.25;;;13.57;;
74612;SDS011;63119;51.788;8.824;2024-03-07T05:41:41;29.50;;;14.63;;
74612;SDS011;63119;51.788;8.824;2024-03-07T05:44:07;28.27;;;14.45;;
74612;SDS011;63119;51.788;8.824;2024-03-07T05:46:36;28.58;;;15.68;;
74612;SDS011;63119;51.788;8.824;2024-03-07T05:49:06;32.10;;;16.67;;
74612;SDS011;63119;51.788;8.824;2024-03-07T05:51:31;28.92;;;15.07;;
74612;SDS011;63119;51.788;8.824;2024-03-07T05:53:57;34.67;;;17.25;;
74612;SDS011;63119;51.788;8.824;2024-03-07T05:56:22;31.20;;;16.27;;
74612;SDS011;63119;51.788;8.824;2024-03-07T05:58:47;30.63;;;16.77;;
74612;SDS011;63119;51.788;8.824;2024-03-07T06:01:12;36.43;;;17.63;;
74612;SDS011;63119;51.788;8.824;2024-03-07T06:03:39;33.77;;;17.17;;
74612;SDS011;63119;51.788;8.824;2024-03-07T06:06:04;29.63;;;16.83;;
74612;SDS011;63119;51.788;8.824;2024-03-07T06:08:32;33.42;;;17.02;;
74612;SDS011;63119;51.788;8.824;2024-03-07T06:10:58;33.37;;;17.27;;
74612;SDS011;63119;51.788;8.824;2024-03-07T06:13:23;33.47;;;16.40;;
74612;SDS011;63119;51.788;8.824;2024-03-07T06:15:48;28.90;;;15.83;;
74612;SDS011;63119;51.788;8.824;2024-03-07T06:18:13;33.43;;;16.03;;
74612;SDS011;63119;51.788;8.824;2024-03-07T06:20:40;30.38;;;15.55;;
74612;SDS011;63119;51.788;8.824;2024-03-07T06:23:06;29.00;;;15.27;;
74612;SDS011;63119;51.788;8.824;2024-03-07T06:25:31;29.45;;;15.38;;
74612;SDS011;63119;51.788;8.824;2024-03-07T06:28:12;27.33;;;14.55;;
74612;SDS011;63119;51.788;8.824;2024-03-07T06:30:38;30.30;;;15.63;;
74612;SDS011;63119;51.788;8.824;2024-03-07T06:33:04;31.10;;;14.70;;
74612;SDS011;63119;51.788;8.824;2024-03-07T06:35:30;30.80;;;16.15;;
74612;SDS011;63119;51.788;8.824;2024-03-07T06:37:55;32.67;;;15.63;;
74612;SDS011;63119;51.788;8.824;2024-03-07T06:40:20;30.23;;;16.10;;
74612;SDS011;63119;51.788;8.824;2024-03-07T06:42:47;29.65;;;15.70;;
74612;SDS011;63119;51.788;8.824;2024-03-07T06:45:13;37.28;;;16.48;;
74612;SDS011;63119;51.788;8.824;2024-03-07T06:47:38;31.30;;;17.23;;
74612;SDS011;63119;51.788;8.824;2024-03-07T06:50:03;35.00;;;17.53;;
74612;SDS011;63119;51.788;8.824;2024-03-07T06:52:29;35.78;;;19.05;;
74612;SDS011;63119;51.788;8.824;2024-03-07T06:54:54;29.80;;;16.77;;
74612;SDS011;63119;51.788;8.824;2024-03-07T06:57:19;35.07;;;15.50;;
74612;SDS011;63119;51.788;8.824;2024-03-07T06:59:44;29.53;;;13.53;;
74612;SDS011;63119;51.788;8.824;2024-03-07T07:02:10;27.00;;;14.23;;
74612;SDS011;63119;51.788;8.824;2024-03-07T07:04:35;30.50;;;14.83;;
74612;SDS011;63119;51.788;8.824;2024-03-07T07:07:09;25.85;;;13.40;;
74612;SDS011;63119;51.788;8.824;2024-03-07T07:09:38;24.23;;;12.90;;
74612;SDS011;63119;51.788;8.824;2024-03-07T07:12:03;24.97;;;12.10;;
74612;SDS011;63119;51.788;8.824;2024-03-07T07:14:28;25.97;;;13.87;;
74612;SDS011;63119;51.788;8.824;2024-03-07T07:16:54;29.08;;;13.80;;
74612;SDS011;63119;51.788;8.824;2024-03-07T07:19:19;29.37;;;14.47;;
74612;SDS011;63119;51.788;8.824;2024-03-07T07:21:44;25.17;;;13.68;;
74612;SDS011;63119;51.788;8.824;2024-03-07T07:24:09;30.97;;;15.30;;
74612;SDS011;63119;51.788;8.824;2024-03-07T07:26:35;30.20;;;14.63;;
74612;SDS011;63119;51.788;8.824;2024-03-07T07:29:01;31.70;;;15.93;;
74612;SDS011;63119;51.788;8.824;2024-03-07T07:31:29;31.98;;;16.30;;
74612;SDS011;63119;51.788;8.824;2024-03-07T07:33:54;33.50;;;16.85;;
74612;SDS011;63119;51.788;8.824;2024-03-07T07:36:19;34.17;;;16.40;;
74612;SDS011;63119;51.788;8.824;2024-03-07T07:38:45;38.10;;;19.27;;
74612;SDS011;63119;51.788;8.824;2024-03-07T07:41:10;33.33;;;18.00;;
74612;SDS011;63119;51.788;8.824;2024-03-07T07:43:35;41.70;;;19.80;;
74612;SDS011;63119;51.788;8.824;2024-03-07T07:46:00;38.37;;;19.77;;
74612;SDS011;63119;51.788;8.824;2024-03-07T07:48:26;37.05;;;17.85;;
74612;SDS011;63119;51.788;8.824;2024-03-07T07:50:51;36.00;;;17.10;;
74612;SDS011;63119;51.788;8.824;2024-03-07T07:53:17;32.30;;;16.30;;
74612;SDS011;63119;51.788;8.824;2024-03-07T07:55:42;37.10;;;18.17;;
74612;SDS011;63119;51.788;8.824;2024-03-07T07:58:07;32.13;;;16.83;;
74612;SDS011;63119;51.788;8.824;2024-03-07T08:00:33;35.43;;;17.00;;
74612;SDS011;63119;51.788;8.824;2024-03-07T08:03:04;37.55;;;18.55;;
74612;SDS011;63119;51.788;8.824;2024-03-07T08:08:01;32.53;;;16.70;;
74612;SDS011;63119;51.788;8.824;2024-03-07T08:10:30;39.45;;;19.15;;
74612;SDS011;63119;51.788;8.824;2024-03-07T08:12:56;42.83;;;18.88;;
74612;SDS011;63119;51.788;8.824;2024-03-07T08:15:23;42.42;;;19.38;;
74612;SDS011;63119;51.788;8.824;2024-03-07T08:17:49;41.22;;;20.17;;
74612;SDS011;63119;51.788;8.824;2024-03-07T08:20:17;39.78;;;20.63;;
74612;SDS011;63119;51.788;8.824;2024-03-07T08:22:43;41.17;;;20.80;;
74612;SDS011;63119;51.788;8.824;2024-03-07T08:25:09;43.67;;;21.00;;
74612;SDS011;63119;51.788;8.824;2024-03-07T08:27:36;47.58;;;22.20;;
74612;SDS011;63119;51.788;8.824;2024-03-07T08:30:03;35.40;;;17.35;;
74612;SDS011;63119;51.788;8.824;2024-03-07T08:32:31;43.30;;;20.33;;
74612;SDS011;63119;51.788;8.824;2024-03-07T08:34:56;40.17;;;19.33;;
74612;SDS011;63119;51.788;8.824;2024-03-07T08:37:22;41.87;;;20.33;;
74612;SDS011;63119;51.788;8.824;2024-03-07T08:39:47;42.78;;;20.70;;
74612;SDS011;63119;51.788;8.824;2024-03-07T08:42:13;40.97;;;20.45;;
74612;SDS011;63119;51.788;8.824;2024-03-07T08:44:38;39.90;;;17.97;;
74612;SDS011;63119;51.788;8.824;2024-03-07T08:47:03;36.10;;;18.90;;
74612;SDS011;63119;51.788;8.824;2024-03-07T08:49:28;32.90;;;17.38;;
74612;SDS011;63119;51.788;8.824;2024-03-07T08:51:54;44.23;;;20.43;;
74612;SDS011;63119;51.788;8.824;2024-03-07T08:54:19;37.10;;;17.77;;
74612;SDS011;63119;51.788;8.824;2024-03-07T08:56:45;34.65;;;17.45;;
74612;SDS011;63119;51.788;8.824;2024-03-07T08:59:10;36.40;;;17.75;;
74612;SDS011;63119;51.788;8.824;2024-03-07T09:01:40;38.33;;;18.17;;
74612;SDS011;63119;51.788;8.824;2024-03-07T09:04:06;40.63;;;18.42;;
74612;SDS011;63119;51.788;8.824;2024-03-07T09:06:32;37.28;;;19.17;;
74612;SDS011;63119;51.788;8.824;2024-03-07T09:08:57;40.03;;;20.40;;
74612;SDS011;63119;51.788;8.824;2024-03-07T09:11:23;37.73;;;18.47;;
74612;SDS011;63119;51.788;8.824;2024-03-07T09:13:48;35.37;;;18.17;;
74612;SDS011;63119;51.788;8.824;2024-03-07T09:16:14;36.35;;;16.45;;
74612;SDS011;63119;51.788;8.824;2024-03-07T09:18:39;32.27;;;16.07;;
74612;SDS011;63119;51.788;8.824;2024-03-07T09:21:05;27.57;;;13.30;;
74612;SDS011;63119;51.788;8.824;2024-03-07T09:23:31;26.80;;;15.05;;
74612;SDS011;63119;51.788;8.824;2024-03-07T09:25:56;30.00;;;14.47;;
74612;SDS011;63119;51.788;8.824;2024-03-07T09:28:22;22.42;;;12.02;;
74612;SDS011;63119;51.788;8.824;2024-03-07T09:30:47;27.33;;;13.60;;
74612;SDS011;63119;51.788;8.824;2024-03-07T09:33:13;28.92;;;13.80;;
74612;SDS011;63119;51.788;8.824;2024-03-07T09:35:41;23.20;;;11.35;;
74612;SDS011;63119;51.788;8.824;2024-03-07T09:38:06;22.57;;;11.37;;
74612;SDS011;63119;51.788;8.824;2024-03-07T09:40:32;28.73;;;13.32;;
74612;SDS011;63119;51.788;8.824;2024-03-07T09:42:58;25.83;;;11.65;;
74612;SDS011;63119;51.788;8.824;2024-03-07T09:45:28;24.80;;;12.57;;
74612;SDS011;63119;51.788;8.824;2024-03-07T09:47:55;21.42;;;11.07;;
74612;SDS011;63119;51.788;8.824;2024-03-07T09:50:21;30.67;;;13.80;;
74612;SDS011;63119;51.788;8.824;2024-03-07T09:52:48;25.40;;;13.13;;
74612;SDS011;63119;51.788;8.824;2024-03-07T09:55:17;28.13;;;13.82;;
74612;SDS011;63119;51.788;8.824;2024-03-07T09:57:43;28.90;;;12.90;;
74612;SDS011;63119;51.788;8.824;2024-03-07T10:00:11;28.02;;;12.85;;
74612;SDS011;63119;51.788;8.824;2024-03-07T10:02:43;26.27;;;13.20;;
74612;SDS011;63119;51.788;8.824;2024-03-07T10:05:09;26.13;;;11.80;;
74612;SDS011;63119;51.788;8.824;2024-03-07T10:07:37;31.65;;;15.25;;
74612;SDS011;63119;51.788;8.824;2024-03-07T10:10:02;25.47;;;12.20;;
74612;SDS011;63119;51.788;8.824;2024-03-07T10:12:35;27.15;;;13.27;;
74612;SDS011;63119;51.788;8.824;2024-03-07T10:15:02;27.45;;;13.70;;
74612;SDS011;63119;51.788;8.824;2024-03-07T10:17:28;26.90;;;11.75;;
74612;SDS011;63119;51.788;8.824;2024-03-07T10:19:54;26.88;;;11.77;;
74612;SDS011;63119;51.788;8.824;2024-03-07T10:22:20;24.63;;;12.02;;
74612;SDS011;63119;51.788;8.824;2024-03-07T10:24:55;20.20;;;10.37;;
74612;SDS011;63119;51.788;8.824;2024-03-07T10:27:22;26.25;;;11.07;;
74612;SDS011;63119;51.788;8.824;2024-03-07T10:29:48;22.67;;;11.18;;
74612;SDS011;63119;51.788;8.824;2024-03-07T10:32:19;24.85;;;11.57;;
74612;SDS011;63119;51.788;8.824;2024-03-07T10:34:45;26.92;;;11.50;;
74612;SDS011;63119;51.788;8.824;2024-03-07T10:37:12;24.88;;;11.73;;
74612;SDS011;63119;51.788;8.824;2024-03-07T10:39:41;22.25;;;11.52;;
74612;SDS011;63119;51.788;8.824;2024-03-07T10:42:07;29.13;;;11.07;;
74612;SDS011;63119;51.788;8.824;2024-03-07T10:44:40;26.33;;;12.23;;
74612;SDS011;63119;51.788;8.824;2024-03-07T10:47:09;28.83;;;13.15;;
74612;SDS011;63119;51.788;8.824;2024-03-07T10:49:47;25.88;;;12.52;;
74612;SDS011;63119;51.788;8.824;2024-03-07T10:53:07;28.67;;;14.52;;
74612;SDS011;63119;51.788;8.824;2024-03-07T10:55:16;29.00;;;12.85;;
74612;SDS011;63119;51.788;8.824;2024-03-07T10:57:51;29.35;;;12.95;;
74612;SDS011;63119;51.788;8.824;2024-03-07T11:00:21;32.45;;;13.05;;
74612;SDS011;63119;51.788;8.824;2024-03-07T11:03:11;27.20;;;10.70;;
74612;SDS011;63119;51.788;8.824;2024-03-07T11:05:36;26.35;;;12.45;;
74612;SDS011;63119;51.788;8.824;2024-03-07T11:08:02;25.08;;;12.35;;
74612;SDS011;63119;51.788;8.824;2024-03-07T11:10:36;29.20;;;12.48;;
74612;SDS011;63119;51.788;8.824;2024-03-07T11:13:02;26.83;;;11.60;;
74612;SDS011;63119;51.788;8.824;2024-03-07T11:15:29;25.40;;;12.38;;
74612;SDS011;63119;51.788;8.824;2024-03-07T11:17:56;27.92;;;12.85;;
74612;SDS011;63119;51.788;8.824;2024-03-07T11:20:22;27.60;;;12.20;;
74612;SDS011;63119;51.788;8.824;2024-03-07T11:22:48;23.58;;;10.07;;
74612;SDS011;63119;51.788;8.824;2024-03-07T11:25:17;26.20;;;11.90;;
74612;SDS011;63119;51.788;8.824;2024-03-07T11:28:04;23.42;;;11.77;;
74612;SDS011;63119;51.788;8.824;2024-03-07T11:32:55;28.93;;;11.53;;
74612;SDS011;63119;51.788;8.824;2024-03-07T11:35:34;25.00;;;12.00;;
74612;SDS011;63119;51.788;8.824;2024-03-07T11:38:01;23.48;;;10.57;;
74612;SDS011;63119;51.788;8.824;2024-03-07T11:42:54;23.73;;;10.73;;
74612;SDS011;63119;51.788;8.824;2024-03-07T11:45:24;23.05;;;9.65;;
74612;SDS011;63119;51.788;8.824;2024-03-07T11:47:57;25.80;;;11.43;;
74612;SDS011;63119;51.788;8.824;2024-03-07T11:50:31;24.45;;;11.45;;
74612;SDS011;63119;51.788;8.824;2024-03-07T11:53:00;30.92;;;11.43;;
74612;SDS011;63119;51.788;8.824;2024-03-07T11:55:26;25.63;;;10.90;;
74612;SDS011;63119;51.788;8.824;2024-03-07T11:57:53;22.00;;;10.95;;
74612;SDS011;63119;51.788;8.824;2024-03-07T12:00:19;22.35;;;8.93;;
74612;SDS011;63119;51.788;8.824;2024-03-07T12:02:45;20.42;;;9.70;;
74612;SDS011;63119;51.788;8.824;2024-03-07T12:05:13;24.35;;;9.95;;
74612;SDS011;63119;51.788;8.824;2024-03-07T12:07:41;18.42;;;8.77;;
74612;SDS011;63119;51.788;8.824;2024-03-07T12:10:08;20.05;;;9.98;;
74612;SDS011;63119;51.788;8.824;2024-03-07T12:12:33;22.02;;;9.65;;
74612;SDS011;63119;51.788;8.824;2024-03-07T12:14:59;21.33;;;9.97;;
74612;SDS011;63119;51.788;8.824;2024-03-07T12:17:24;18.73;;;7.40;;
74612;SDS011;63119;51.788;8.824;2024-03-07T12:19:50;22.30;;;10.02;;
74612;SDS011;63119;51.788;8.824;2024-03-07T12:22:19;22.02;;;9.40;;
74612;SDS011;63119;51.788;8.824;2024-03-07T12:24:59;22.48;;;10.40;;
74612;SDS011;63119;51.788;8.824;2024-03-07T12:27:27;23.50;;;9.18;;
74612;SDS011;63119;51.788;8.824;2024-03-07T12:29:53;20.48;;;9.20;;
74612;SDS011;63119;51.788;8.824;2024-03-07T12:32:18;20.25;;;9.05;;
74612;SDS011;63119;51.788;8.824;2024-03-07T12:34:44;19.65;;;8.07;;
74612;SDS011;63119;51.788;8.824;2024-03-07T12:37:12;17.98;;;8.63;;
74612;SDS011;63119;51.788;8.824;2024-03-07T12:39:44;26.63;;;10.70;;
74612;SDS011;63119;51.788;8.824;2024-03-07T12:42:14;25.60;;;11.90;;
74612;SDS011;63119;51.788;8.824;2024-03-07T12:44:41;23.88;;;11.70;;
74612;SDS011;63119;51.788;8.824;2024-03-07T12:47:13;27.17;;;11.32;;
74612;SDS011;63119;51.788;8.824;2024-03-07T12:49:39;24.48;;;11.23;;
74612;SDS011;63119;51.788;8.824;2024-03-07T12:52:08;28.45;;;12.23;;
74612;SDS011;63119;51.788;8.824;2024-03-07T12:54:34;24.17;;;11.57;;
74612;SDS011;63119;51.788;8.824;2024-03-07T12:57:05;23.95;;;11.90;;
74612;SDS011;63119;51.788;8.824;2024-03-07T12:59:31;27.50;;;12.68;;
74612;SDS011;63119;51.788;8.824;2024-03-07T13:01:56;27.50;;;11.57;;
74612;SDS011;63119;51.788;8.824;2024-03-07T13:04:22;25.50;;;10.80;;
74612;SDS011;63119;51.788;8.824;2024-03-07T13:06:47;24.50;;;11.52;;
74612;SDS011;63119;51.788;8.824;2024-03-07T13:09:12;28.63;;;12.73;;
74612;SDS011;63119;51.788;8.824;2024-03-07T13:11:38;25.70;;;11.13;;
74612;SDS011;63119;51.788;8.824;2024-03-07T13:14:07;26.23;;;11.55;;
74612;SDS011;63119;51.788;8.824;2024-03-07T13:16:33;25.42;;;10.90;;
74612;SDS011;63119;51.788;8.824;2024-03-07T13:18:59;26.45;;;11.57;;
74612;SDS011;63119;51.788;8.824;2024-03-07T13:21:24;23.45;;;11.18;;
74612;SDS011;63119;51.788;8.824;2024-03-07T13:23:52;27.52;;;11.52;;
74612;SDS011;63119;51.788;8.824;2024-03-07T13:26:17;22.05;;;10.05;;
74612;SDS011;63119;51.788;8.824;2024-03-07T13:28:49;23.77;;;10.90;;
74612;SDS011;63119;51.788;8.824;2024-03-07T13:31:16;20.58;;;9.30;;
74612;SDS011;63119;51.788;8.824;2024-03-07T13:33:42;25.98;;;10.20;;
74612;SDS011;63119;51.788;8.824;2024-03-07T13:36:08;22.38;;;10.43;;
74612;SDS011;63119;51.788;8.824;2024-03-07T13:38:33;23.67;;;10.00;;
74612;SDS011;63119;51.788;8.824;2024-03-07T13:40:59;22.98;;;10.68;;
74612;SDS011;63119;51.788;8.824;2024-03-07T13:43:28;23.38;;;9.77;;
74612;SDS011;63119;51.788;8.824;2024-03-07T13:45:54;26.25;;;10.88;;
74612;SDS011;63119;51.788;8.824;2024-03-07T13:48:19;23.45;;;10.13;;
74612;SDS011;63119;51.788;8.824;2024-03-07T13:50:45;27.25;;;10.80;;
74612;SDS011;63119;51.788;8.824;2024-03-07T13:53:10;23.83;;;10.27;;
74612;SDS011;63119;51.788;8.824;2024-03-07T14:06:33;19.17;;;9.88;;
74612;SDS011;63119;51.788;8.824;2024-03-07T14:09:13;26.40;;;9.82;;
74612;SDS011;63119;51.788;8.824;2024-03-07T14:18:35;27.08;;;10.95;;
74612;SDS011;63119;51.788;8.824;2024-03-07T14:27:43;27.35;;;11.90;;
74612;SDS011;63119;51.788;8.824;2024-03-07T14:33:08;29.52;;;11.70;;
74612;SDS011;63119;51.788;8.824;2024-03-07T14:35:35;30.52;;;12.60;;
74612;SDS011;63119;51.788;8.824;2024-03-07T14:38:28;30.10;;;12.48;;
74612;SDS011;63119;51.788;8.824;2024-03-07T14:41:08;25.17;;;11.77;;
74612;SDS011;63119;51.788;8.824;2024-03-07T14:43:37;33.30;;;12.27;;
74612;SDS011;63119;51.788;8.824;2024-03-07T14:46:02;31.47;;;13.13;;
74612;SDS011;63119;51.788;8.824;2024-03-07T14:48:28;29.17;;;12.45;;
74612;SDS011;63119;51.788;8.824;2024-03-07T14:50:53;24.23;;;11.30;;
74612;SDS011;63119;51.788;8.824;2024-03-07T14:53:18;21.57;;;9.77;;
74612;SDS011;63119;51.788;8.824;2024-03-07T14:55:45;21.33;;;9.32;;
74612;SDS011;63119;51.788;8.824;2024-03-07T14:58:10;22.55;;;9.95;;